createdAt,value
2023-04-26T00:00:32.924Z,99.99
2023-04-26T00:01:32.935Z,99.99
2023-04-26T00:02:33.137Z,99.99
2023-04-26T00:03:33.298Z,99.99
2023-04-26T00:04:33.131Z,99.99
2023-04-26T00:05:33.072Z,99.99
2023-04-26T00:06:33.036Z,99.99
2023-04-26T00:07:33.050Z,99.99
2023-04-26T00:08:33.074Z,99.99
2023-04-26T00:09:33.083Z,99.99
2023-04-26T00:10:33.100Z,99.99
2023-04-26T00:11:33.123Z,99.99
2023-04-26T00:12:33.147Z,99.99
2023-04-26T00:13:33.185Z,99.99
2023-04-26T00:14:33.176Z,99.99
2023-04-26T00:15:33.195Z,99.99
2023-04-26T00:16:33.220Z,99.99
2023-04-26T00:17:33.291Z,99.99
2023-04-26T00:18:33.253Z,99.99
2023-04-26T00:19:33.268Z,99.99
2023-04-26T00:20:33.288Z,99.99
2023-04-26T00:21:33.305Z,99.99
2023-04-26T00:22:33.321Z,99.99
2023-04-26T00:23:33.351Z,99.99
2023-04-26T00:24:33.358Z,99.99
2023-04-26T00:25:33.380Z,99.99
2023-04-26T00:26:33.396Z,99.99
2023-04-26T00:27:33.423Z,99.99
2023-04-26T00:28:33.431Z,99.99
2023-04-26T00:29:33.454Z,99.99
2023-04-26T00:30:33.476Z,99.99
2023-04-26T00:31:33.528Z,99.99
2023-04-26T00:32:33.593Z,99.99
2023-04-26T00:33:33.543Z,99.99
2023-04-26T00:34:33.543Z,99.99
2023-04-26T00:35:33.587Z,99.99
2023-04-26T00:36:33.579Z,99.99
2023-04-26T00:37:33.608Z,99.99
2023-04-26T00:38:33.617Z,99.99
2023-04-26T00:39:33.636Z,99.99
2023-04-26T00:40:33.657Z,99.99
2023-04-26T00:41:33.687Z,99.99
2023-04-26T00:42:33.694Z,99.99
2023-04-26T00:43:33.734Z,99.99
2023-04-26T00:44:33.726Z,99.99
2023-04-26T00:45:33.822Z,99.99
2023-04-26T00:46:33.765Z,99.99
2023-04-26T00:47:33.823Z,99.99
2023-04-26T00:48:33.805Z,99.99
2023-04-26T00:49:33.824Z,99.99
2023-04-26T00:50:33.841Z,99.99
2023-04-26T00:51:33.853Z,99.99
2023-04-26T00:52:33.883Z,99.99
2023-04-26T00:53:33.889Z,99.99
2023-04-26T00:54:33.908Z,99.99
2023-04-26T00:55:33.952Z,99.99
2023-04-26T00:56:33.944Z,99.99
2023-04-26T00:57:33.964Z,99.99
2023-04-26T00:58:33.984Z,99.99
2023-04-26T00:59:34.000Z,99.99
2023-04-26T01:00:34.017Z,99.99
2023-04-26T01:01:34.132Z,99.99
2023-04-26T01:02:34.112Z,99.99
2023-04-26T01:03:34.233Z,99.99
2023-04-26T01:04:34.129Z,99.99
2023-04-26T01:05:34.104Z,99.99
2023-04-26T01:06:34.126Z,99.99
2023-04-26T01:07:34.141Z,99.99
2023-04-26T01:08:34.161Z,99.99
2023-04-26T01:09:34.179Z,99.99
2023-04-26T01:10:34.206Z,99.99
2023-04-26T01:11:34.232Z,99.99
2023-04-26T01:12:34.234Z,99.99
2023-04-26T01:13:34.255Z,99.99
2023-04-26T01:14:34.267Z,99.99
2023-04-26T01:15:34.278Z,99.99
2023-04-26T01:16:34.355Z,99.99
2023-04-26T01:17:34.337Z,99.99
2023-04-26T01:18:34.351Z,99.99
2023-04-26T01:19:34.359Z,99.99
2023-04-26T01:20:34.378Z,99.99
2023-04-26T01:21:34.396Z,99.99
2023-04-26T01:22:34.411Z,99.99
2023-04-26T01:23:34.430Z,99.99
2023-04-26T01:24:34.448Z,99.99
2023-04-26T01:25:34.465Z,99.99
2023-04-26T01:26:34.488Z,99.99
2023-04-26T01:27:34.504Z,99.99
2023-04-26T01:28:34.524Z,99.99
2023-04-26T01:29:34.537Z,99.99
2023-04-26T01:30:34.551Z,99.99
2023-04-26T01:31:34.658Z,99.99
2023-04-26T01:32:34.626Z,99.99
2023-04-26T01:33:34.611Z,99.99
2023-04-26T01:34:34.641Z,99.99
2023-04-26T01:35:34.654Z,99.99
2023-04-26T01:36:34.747Z,99.99
2023-04-26T01:37:34.694Z,99.99
2023-04-26T01:38:34.696Z,99.99
2023-04-26T01:39:34.716Z,99.99
2023-04-26T01:40:34.732Z,99.99
2023-04-26T01:41:34.746Z,99.99
2023-04-26T01:42:34.767Z,99.99
2023-04-26T01:43:34.784Z,99.99
2023-04-26T01:44:34.805Z,99.99
2023-04-26T01:45:34.822Z,99.99
2023-04-26T01:46:34.886Z,99.99
2023-04-26T01:47:34.876Z,99.99
2023-04-26T01:48:34.875Z,99.99
2023-04-26T01:49:34.896Z,99.99
2023-04-26T01:50:34.910Z,99.99
2023-04-26T01:51:34.944Z,99.99
2023-04-26T01:52:35.047Z,99.99
2023-04-26T01:53:34.962Z,99.99
2023-04-26T01:54:34.987Z,99.99
2023-04-26T01:55:35.007Z,99.99
2023-04-26T01:56:35.020Z,99.99
2023-04-26T01:57:35.040Z,99.99
2023-04-26T01:58:35.049Z,99.99
2023-04-26T01:59:35.080Z,99.99
2023-04-26T02:00:35.090Z,99.99
2023-04-26T02:01:35.189Z,99.99
2023-04-26T02:02:35.160Z,99.99
2023-04-26T02:03:35.154Z,99.99
2023-04-26T02:04:35.175Z,99.99
2023-04-26T02:05:35.182Z,99.99
2023-04-26T02:06:35.195Z,99.99
2023-04-26T02:07:35.220Z,99.99
2023-04-26T02:08:35.236Z,99.99
2023-04-26T02:09:35.247Z,99.99
2023-04-26T02:10:35.268Z,99.99
2023-04-26T02:11:35.277Z,99.99
2023-04-26T02:12:35.313Z,99.99
2023-04-26T02:13:35.324Z,99.99
2023-04-26T02:14:35.342Z,99.99
2023-04-26T02:15:35.357Z,99.99
2023-04-26T02:16:35.387Z,99.99
2023-04-26T02:17:35.423Z,99.99
2023-04-26T02:18:35.459Z,99.99
2023-04-26T02:19:35.428Z,99.99
2023-04-26T02:20:35.444Z,99.99
2023-04-26T02:21:35.471Z,99.99
2023-04-26T02:22:35.498Z,99.99
2023-04-26T02:23:35.497Z,99.99
2023-04-26T02:24:35.513Z,99.99
2023-04-26T02:25:35.532Z,99.99
2023-04-26T02:26:35.551Z,99.99
2023-04-26T02:27:35.569Z,99.99
2023-04-26T02:28:35.583Z,99.99
2023-04-26T02:29:43.032Z,99.99
2023-04-26T02:30:35.621Z,99.99
2023-04-26T02:31:35.695Z,99.99
2023-04-26T02:32:35.676Z,99.99
2023-04-26T02:33:35.674Z,99.99
2023-04-26T02:34:35.728Z,99.99
2023-04-26T02:35:35.710Z,99.99
2023-04-26T02:36:35.739Z,99.99
2023-04-26T02:37:35.764Z,99.99
2023-04-26T02:38:35.771Z,99.99
2023-04-26T02:39:35.777Z,99.99
2023-04-26T02:40:35.800Z,99.99
2023-04-26T02:41:35.815Z,99.99
2023-04-26T02:42:35.833Z,99.99
2023-04-26T02:43:35.848Z,99.99
2023-04-26T02:44:35.874Z,99.99
2023-04-26T02:45:35.891Z,99.99
2023-04-26T02:46:35.934Z,99.99
2023-04-26T02:47:35.951Z,99.99
2023-04-26T02:48:35.934Z,99.99
2023-04-26T02:49:35.958Z,99.99
2023-04-26T02:50:35.971Z,99.99
2023-04-26T02:51:35.988Z,99.99
2023-04-26T02:52:36.011Z,99.99
2023-04-26T02:53:36.021Z,99.99
2023-04-26T02:54:36.046Z,99.99
2023-04-26T02:55:36.053Z,99.99
2023-04-26T02:56:36.073Z,99.99
2023-04-26T02:57:36.094Z,99.99
2023-04-26T02:58:36.113Z,99.99
2023-04-26T02:59:36.134Z,99.99
2023-04-26T03:00:36.180Z,99.99
2023-04-26T03:01:36.163Z,99.99
2023-04-26T03:02:36.401Z,99.99
2023-04-26T03:03:36.256Z,99.99
2023-04-26T03:04:36.212Z,99.99
2023-04-26T03:05:36.262Z,99.99
2023-04-26T03:06:36.246Z,99.99
2023-04-26T03:07:36.275Z,99.99
2023-04-26T03:08:36.280Z,99.99
2023-04-26T03:09:36.302Z,99.99
2023-04-26T03:10:36.318Z,99.99
2023-04-26T03:11:36.333Z,99.99
2023-04-26T03:12:36.408Z,99.99
2023-04-26T03:13:36.379Z,99.99
2023-04-26T03:14:36.385Z,99.99
2023-04-26T03:15:36.404Z,99.99
2023-04-26T03:16:36.467Z,99.99
2023-04-26T03:17:36.445Z,99.99
2023-04-26T03:18:36.454Z,99.99
2023-04-26T03:19:36.478Z,99.99
2023-04-26T03:20:36.497Z,99.99
2023-04-26T03:21:36.511Z,99.99
2023-04-26T03:22:36.531Z,99.99
2023-04-26T03:23:36.542Z,99.99
2023-04-26T03:24:36.568Z,99.99
2023-04-26T03:25:36.581Z,99.99
2023-04-26T03:26:36.608Z,99.99
2023-04-26T03:27:36.612Z,99.99
2023-04-26T03:28:36.630Z,99.99
2023-04-26T03:29:36.649Z,99.99
2023-04-26T03:30:36.684Z,99.99
2023-04-26T03:31:36.706Z,99.99
2023-04-26T03:32:36.724Z,99.99
2023-04-26T03:33:36.718Z,99.99
2023-04-26T03:34:36.740Z,99.99
2023-04-26T03:35:36.773Z,99.99
2023-04-26T03:36:36.776Z,99.99
2023-04-26T03:37:36.791Z,99.99
2023-04-26T03:38:36.807Z,99.99
2023-04-26T03:39:36.823Z,99.99
2023-04-26T03:40:36.839Z,99.99
2023-04-26T03:41:36.873Z,99.99
2023-04-26T03:42:36.874Z,99.99
2023-04-26T03:43:36.897Z,99.99
2023-04-26T03:44:36.970Z,99.99
2023-04-26T03:45:36.977Z,99.99
2023-04-26T03:46:36.963Z,99.99
2023-04-26T03:47:37.001Z,99.99
2023-04-26T03:48:36.980Z,99.99
2023-04-26T03:49:36.995Z,99.99
2023-04-26T03:50:37.012Z,99.99
2023-04-26T03:51:37.041Z,99.99
2023-04-26T03:52:37.054Z,99.99
2023-04-26T03:53:37.060Z,99.99
2023-04-26T03:54:37.125Z,99.99
2023-04-26T03:55:37.092Z,99.99
2023-04-26T03:56:37.148Z,99.99
2023-04-26T03:57:37.163Z,99.99
2023-04-26T03:58:37.170Z,99.99
2023-04-26T03:59:37.188Z,99.99
2023-04-26T04:00:37.206Z,99.99
2023-04-26T04:01:37.212Z,99.99
2023-04-26T04:02:37.358Z,99.99
2023-04-26T04:03:39.995Z,99.99
2023-04-26T04:04:37.425Z,99.99
2023-04-26T04:05:37.441Z,99.99
2023-04-26T04:06:37.313Z,99.99
2023-04-26T04:07:37.320Z,99.99
2023-04-26T04:08:37.357Z,99.99
2023-04-26T04:09:37.349Z,99.99
2023-04-26T04:10:37.370Z,99.99
2023-04-26T04:11:37.395Z,99.99
2023-04-26T04:12:37.402Z,99.99
2023-04-26T04:13:37.433Z,99.99
2023-04-26T04:14:37.445Z,99.99
2023-04-26T04:15:37.490Z,99.99
2023-04-26T04:16:37.503Z,99.99
2023-04-26T04:17:38.528Z,99.99
2023-04-26T04:18:37.532Z,99.99
2023-04-26T04:19:37.511Z,99.99
2023-04-26T04:20:37.521Z,99.99
2023-04-26T04:21:37.549Z,99.99
2023-04-26T04:22:37.562Z,99.99
2023-04-26T04:23:37.573Z,99.99
2023-04-26T04:24:37.594Z,99.99
2023-04-26T04:25:37.612Z,99.99
2023-04-26T04:26:37.639Z,99.99
2023-04-26T04:27:37.658Z,99.99
2023-04-26T04:28:37.684Z,99.99
2023-04-26T04:29:37.693Z,99.99
2023-04-26T04:30:37.743Z,99.99
2023-04-26T04:31:37.752Z,99.99
2023-04-26T04:32:37.831Z,99.99
2023-04-26T04:33:37.763Z,99.99
2023-04-26T04:34:37.781Z,99.99
2023-04-26T04:35:37.785Z,99.99
2023-04-26T04:36:37.808Z,99.99
2023-04-26T04:37:37.816Z,99.99
2023-04-26T04:38:37.831Z,99.99
2023-04-26T04:39:37.849Z,99.99
2023-04-26T04:40:37.877Z,99.99
2023-04-26T04:41:37.888Z,99.99
2023-04-26T04:42:37.900Z,99.99
2023-04-26T04:43:37.924Z,99.99
2023-04-26T04:44:37.941Z,99.99
2023-04-26T04:45:37.955Z,99.99
2023-04-26T04:46:38.137Z,99.99
2023-04-26T04:47:38.067Z,99.99
2023-04-26T04:48:38.069Z,99.99
2023-04-26T04:49:38.032Z,99.99
2023-04-26T04:50:38.041Z,99.99
2023-04-26T04:51:38.056Z,99.99
2023-04-26T04:52:38.084Z,99.99
2023-04-26T04:53:38.100Z,99.99
2023-04-26T04:54:38.113Z,99.99
2023-04-26T04:55:38.131Z,99.99
2023-04-26T04:56:38.148Z,99.99
2023-04-26T04:57:39.013Z,99.99
2023-04-26T04:58:38.182Z,99.99
2023-04-26T04:59:38.202Z,99.99
2023-04-26T05:00:38.300Z,99.99
2023-04-26T05:01:38.269Z,99.99
2023-04-26T05:02:38.359Z,99.99
2023-04-26T05:03:38.418Z,99.99
2023-04-26T05:04:38.424Z,99.99
2023-04-26T05:05:38.336Z,99.99
2023-04-26T05:06:38.331Z,99.99
2023-04-26T05:07:38.347Z,99.99
2023-04-26T05:08:38.380Z,99.99
2023-04-26T05:09:38.387Z,99.99
2023-04-26T05:10:38.412Z,99.99
2023-04-26T05:11:38.429Z,99.99
2023-04-26T05:12:38.452Z,99.99
2023-04-26T05:13:38.474Z,99.99
2023-04-26T05:14:38.490Z,99.99
2023-04-26T05:15:38.496Z,99.99
2023-04-26T05:16:38.632Z,99.99
2023-04-26T05:17:38.603Z,99.99
2023-04-26T05:18:38.587Z,99.99
2023-04-26T05:19:38.576Z,99.99
2023-04-26T05:20:38.601Z,99.99
2023-04-26T05:21:38.620Z,99.99
2023-04-26T05:22:38.646Z,99.73
2023-04-26T05:23:38.658Z,98.64
2023-04-26T05:24:38.676Z,97.60
2023-04-26T05:25:38.697Z,97.12
2023-04-26T05:26:38.714Z,95.22
2023-04-26T05:27:38.737Z,94.60
2023-04-26T05:28:38.753Z,93.75
2023-04-26T05:29:38.776Z,92.99
2023-04-26T05:30:38.795Z,91.94
2023-04-26T05:31:38.856Z,90.61
2023-04-26T05:32:38.867Z,89.75
2023-04-26T05:33:38.855Z,89.18
2023-04-26T05:34:38.875Z,88.57
2023-04-26T05:35:38.895Z,88.67
2023-04-26T05:36:38.927Z,87.85
2023-04-26T05:37:38.935Z,88.19
2023-04-26T05:38:38.952Z,87.85
2023-04-26T05:39:38.976Z,87.66
2023-04-26T05:40:38.996Z,87.57
2023-04-26T05:41:39.017Z,86.71
2023-04-26T05:42:39.038Z,86.52
2023-04-26T05:43:39.058Z,86.14
2023-04-26T05:44:39.079Z,85.76
2023-04-26T05:45:39.117Z,85.00
2023-04-26T05:46:39.132Z,85.76
2023-04-26T05:47:39.181Z,85.28
2023-04-26T05:48:39.161Z,85.28
2023-04-26T05:49:39.190Z,85.66
2023-04-26T05:50:40.054Z,85.47
2023-04-26T05:51:39.227Z,85.76
2023-04-26T05:52:39.297Z,85.38
2023-04-26T05:53:39.266Z,84.91
2023-04-26T05:54:39.292Z,85.47
2023-04-26T05:55:39.307Z,85.38
2023-04-26T05:56:39.418Z,85.19
2023-04-26T05:57:39.405Z,85.38
2023-04-26T05:58:39.398Z,85.57
2023-04-26T05:59:39.438Z,85.57
2023-04-26T06:00:39.414Z,85.47
2023-04-26T06:01:39.435Z,86.33
2023-04-26T06:02:39.519Z,85.91
2023-04-26T06:03:39.764Z,86.43
2023-04-26T06:04:39.597Z,86.67
2023-04-26T06:05:39.532Z,86.95
2023-04-26T06:06:39.536Z,86.29
2023-04-26T06:07:39.556Z,85.91
2023-04-26T06:08:39.583Z,86.67
2023-04-26T06:09:39.604Z,86.76
2023-04-26T06:10:39.635Z,86.76
2023-04-26T06:11:39.644Z,87.52
2023-04-26T06:12:39.664Z,87.62
2023-04-26T06:13:39.685Z,87.43
2023-04-26T06:14:39.710Z,88.09
2023-04-26T06:15:39.735Z,88.19
2023-04-26T06:16:41.160Z,88.67
2023-04-26T06:17:39.784Z,88.13
2023-04-26T06:18:39.793Z,87.66
2023-04-26T06:19:39.824Z,87.19
2023-04-26T06:20:39.837Z,86.24
2023-04-26T06:21:39.854Z,86.61
2023-04-26T06:22:39.876Z,86.43
2023-04-26T06:23:39.905Z,86.57
2023-04-26T06:24:39.936Z,86.76
2023-04-26T06:25:39.942Z,86.57
2023-04-26T06:26:39.974Z,85.99
2023-04-26T06:27:39.984Z,86.04
2023-04-26T06:28:42.215Z,86.04
2023-04-26T06:29:40.039Z,85.80
2023-04-26T06:30:40.113Z,85.46
2023-04-26T06:31:40.108Z,84.50
2023-04-26T06:32:40.106Z,83.26
2023-04-26T06:33:40.121Z,82.50
2023-04-26T06:34:40.143Z,81.07
2023-04-26T06:35:40.170Z,78.98
2023-04-26T06:36:40.194Z,77.74
2023-04-26T06:37:40.210Z,77.36
2023-04-26T06:38:40.235Z,77.32
2023-04-26T06:39:40.261Z,77.61
2023-04-26T06:40:40.327Z,77.22
2023-04-26T06:41:40.300Z,77.22
2023-04-26T06:42:40.451Z,77.13
2023-04-26T06:43:40.355Z,77.36
2023-04-26T06:44:40.370Z,76.65
2023-04-26T06:45:41.527Z,77.03
2023-04-26T06:46:40.449Z,76.94
2023-04-26T06:47:40.470Z,77.22
2023-04-26T06:48:40.482Z,77.32
2023-04-26T06:49:40.490Z,78.22
2023-04-26T06:50:40.542Z,77.74
2023-04-26T06:51:40.634Z,77.26
2023-04-26T06:52:40.564Z,76.88
2023-04-26T06:53:40.804Z,76.98
2023-04-26T06:54:53.722Z,77.59
2023-04-26T06:55:40.658Z,76.73
2023-04-26T06:56:40.705Z,75.68
2023-04-26T06:57:40.678Z,75.11
2023-04-26T06:58:40.702Z,74.25
2023-04-26T06:59:40.733Z,74.82
2023-04-26T07:00:40.760Z,75.87
2023-04-26T07:01:40.851Z,75.59
2023-04-26T07:02:40.873Z,75.20
2023-04-26T07:03:40.861Z,73.68
2023-04-26T07:04:41.344Z,73.55
2023-04-26T07:05:40.869Z,73.65
2023-04-26T07:06:40.904Z,74.60
2023-04-26T07:07:40.944Z,75.26
2023-04-26T07:08:40.945Z,75.04
2023-04-26T07:09:41.059Z,75.79
2023-04-26T07:10:40.995Z,76.27
2023-04-26T07:11:41.013Z,76.46
2023-04-26T07:12:41.036Z,76.75
2023-04-26T07:13:41.129Z,77.61
2023-04-26T07:14:41.091Z,77.03
2023-04-26T07:15:41.106Z,77.19
2023-04-26T07:16:41.317Z,77.19
2023-04-26T07:17:41.242Z,77.37
2023-04-26T07:18:41.182Z,78.61
2023-04-26T07:19:41.630Z,78.33
2023-04-26T07:20:41.213Z,78.96
2023-04-26T07:21:41.236Z,79.43
2023-04-26T07:22:41.259Z,80.38
2023-04-26T07:23:41.282Z,80.80
2023-04-26T07:24:41.301Z,80.90
2023-04-26T07:25:41.324Z,81.09
2023-04-26T07:26:41.350Z,81.76
2023-04-26T07:27:41.371Z,81.76
2023-04-26T07:28:41.392Z,81.56
2023-04-26T07:29:41.412Z,81.95
2023-04-26T07:30:41.433Z,81.56
2023-04-26T07:31:41.448Z,81.37
2023-04-26T07:32:41.547Z,81.13
2023-04-26T07:33:41.544Z,81.03
2023-04-26T07:34:41.526Z,80.55
2023-04-26T07:35:41.544Z,78.56
2023-04-26T07:36:41.564Z,78.65
2023-04-26T07:37:41.586Z,79.03
2023-04-26T07:38:41.614Z,79.22
2023-04-26T07:39:41.674Z,78.46
2023-04-26T07:40:41.650Z,78.37
2023-04-26T07:41:43.680Z,77.98
2023-04-26T07:42:41.703Z,77.51
2023-04-26T07:43:41.715Z,77.51
2023-04-26T07:44:41.759Z,78.08
2023-04-26T07:45:41.772Z,78.46
2023-04-26T07:46:41.782Z,79.55
2023-04-26T07:47:41.906Z,79.27
2023-04-26T07:48:41.827Z,78.69
2023-04-26T07:49:41.858Z,77.93
2023-04-26T07:50:41.872Z,77.36
2023-04-26T07:51:41.914Z,77.17
2023-04-26T07:52:41.920Z,76.12
2023-04-26T07:53:41.943Z,75.16
2023-04-26T07:54:41.961Z,74.37
2023-04-26T07:55:41.982Z,74.46
2023-04-26T07:56:42.006Z,75.04
2023-04-26T07:57:42.030Z,74.84
2023-04-26T07:58:42.052Z,75.07
2023-04-26T07:59:42.073Z,75.74
2023-04-26T08:00:42.265Z,76.88
2023-04-26T08:01:42.124Z,77.07
2023-04-26T08:02:44.479Z,76.50
2023-04-26T08:03:42.437Z,76.03
2023-04-26T08:04:42.332Z,75.74
2023-04-26T08:05:42.344Z,75.64
2023-04-26T08:06:42.229Z,75.36
2023-04-26T08:07:42.256Z,75.45
2023-04-26T08:08:42.287Z,73.83
2023-04-26T08:09:42.295Z,73.26
2023-04-26T08:10:42.318Z,72.50
2023-04-26T08:11:42.438Z,71.83
2023-04-26T08:12:42.367Z,71.42
2023-04-26T08:13:42.396Z,71.61
2023-04-26T08:14:42.407Z,72.08
2023-04-26T08:15:42.441Z,72.85
2023-04-26T08:16:42.585Z,73.03
2023-04-26T08:17:42.571Z,73.13
2023-04-26T08:18:44.086Z,73.13
2023-04-26T08:19:42.524Z,73.32
2023-04-26T08:20:42.548Z,73.32
2023-04-26T08:21:42.568Z,73.80
2023-04-26T08:22:42.594Z,73.51
2023-04-26T08:23:42.611Z,73.13
2023-04-26T08:24:42.636Z,72.17
2023-04-26T08:25:42.654Z,71.98
2023-04-26T08:26:42.684Z,72.27
2023-04-26T08:27:42.695Z,72.75
2023-04-26T08:28:42.735Z,72.65
2023-04-26T08:29:42.747Z,73.13
2023-04-26T08:30:42.788Z,73.22
2023-04-26T08:31:42.810Z,73.00
2023-04-26T08:32:42.969Z,72.94
2023-04-26T08:33:42.837Z,72.90
2023-04-26T08:34:42.857Z,72.56
2023-04-26T08:35:42.880Z,73.10
2023-04-26T08:36:42.904Z,73.47
2023-04-26T08:37:42.920Z,73.28
2023-04-26T08:38:42.947Z,73.66
2023-04-26T08:39:42.972Z,74.33
2023-04-26T08:40:42.990Z,74.33
2023-04-26T08:41:43.020Z,75.38
2023-04-26T08:42:43.033Z,75.85
2023-04-26T08:43:43.056Z,76.23
2023-04-26T08:44:43.078Z,76.33
2023-04-26T08:45:43.098Z,76.71
2023-04-26T08:46:43.212Z,75.85
2023-04-26T08:47:43.232Z,76.57
2023-04-26T08:48:43.250Z,76.33
2023-04-26T08:49:43.205Z,76.52
2023-04-26T08:50:43.208Z,76.61
2023-04-26T08:51:43.226Z,77.00
2023-04-26T08:52:43.256Z,76.71
2023-04-26T08:53:43.279Z,76.23
2023-04-26T08:54:43.304Z,76.42
2023-04-26T08:55:43.317Z,76.42
2023-04-26T08:56:43.344Z,75.95
2023-04-26T08:57:43.363Z,76.14
2023-04-26T08:58:43.382Z,76.33
2023-04-26T08:59:43.410Z,76.14
2023-04-26T09:00:43.430Z,75.95
2023-04-26T09:01:43.489Z,76.33
2023-04-26T09:02:43.547Z,75.67
2023-04-26T09:03:43.676Z,74.94
2023-04-26T09:04:43.683Z,74.75
2023-04-26T09:05:43.539Z,75.60
2023-04-26T09:06:43.558Z,75.42
2023-04-26T09:07:43.583Z,75.32
2023-04-26T09:08:43.606Z,75.79
2023-04-26T09:09:43.634Z,75.89
2023-04-26T09:10:43.649Z,75.70
2023-04-26T09:11:43.672Z,75.70
2023-04-26T09:12:43.705Z,76.03
2023-04-26T09:13:43.717Z,74.50
2023-04-26T09:14:43.747Z,74.69
2023-04-26T09:15:43.793Z,74.50
2023-04-26T09:16:43.825Z,73.83
2023-04-26T09:17:43.846Z,72.69
2023-04-26T09:18:43.830Z,73.17
2023-04-26T09:19:43.858Z,73.36
2023-04-26T09:20:44.093Z,72.31
2023-04-26T09:21:43.906Z,72.16
2023-04-26T09:22:43.925Z,72.72
2023-04-26T09:23:43.957Z,72.72
2023-04-26T09:24:43.966Z,71.68
2023-04-26T09:25:43.992Z,70.53
2023-04-26T09:26:44.020Z,69.48
2023-04-26T09:27:44.041Z,69.68
2023-04-26T09:28:44.064Z,69.20
2023-04-26T09:29:44.083Z,69.20
2023-04-26T09:30:44.110Z,67.96
2023-04-26T09:31:45.277Z,67.48
2023-04-26T09:32:44.213Z,66.91
2023-04-26T09:33:44.178Z,67.48
2023-04-26T09:34:44.216Z,67.10
2023-04-26T09:35:44.228Z,67.29
2023-04-26T09:36:44.258Z,68.24
2023-04-26T09:37:57.298Z,68.88
2023-04-26T09:38:44.812Z,69.35
2023-04-26T09:39:44.318Z,68.24
2023-04-26T09:40:44.350Z,68.15
2023-04-26T09:41:44.365Z,67.93
2023-04-26T09:42:44.409Z,67.29
2023-04-26T09:43:44.503Z,68.05
2023-04-26T09:44:44.436Z,68.82
2023-04-26T09:45:44.465Z,68.53
2023-04-26T09:46:44.524Z,67.77
2023-04-26T09:47:44.544Z,68.15
2023-04-26T09:48:45.566Z,67.86
2023-04-26T09:49:44.551Z,67.64
2023-04-26T09:50:44.572Z,67.93
2023-04-26T09:51:44.598Z,67.55
2023-04-26T09:52:44.702Z,67.26
2023-04-26T09:53:44.638Z,67.26
2023-04-26T09:54:44.668Z,67.26
2023-04-26T09:55:44.686Z,68.69
2023-04-26T09:56:44.709Z,70.15
2023-04-26T09:57:44.741Z,71.01
2023-04-26T09:58:44.754Z,70.92
2023-04-26T09:59:44.776Z,70.00
2023-04-26T10:00:44.828Z,67.90
2023-04-26T10:01:44.834Z,67.80
2023-04-26T10:02:44.949Z,66.94
2023-04-26T10:03:45.140Z,65.52
2023-04-26T10:04:44.927Z,64.85
2023-04-26T10:05:44.922Z,65.04
2023-04-26T10:06:44.994Z,65.04
2023-04-26T10:07:44.978Z,65.52
2023-04-26T10:08:45.023Z,65.04
2023-04-26T10:09:45.028Z,63.32
2023-04-26T10:10:45.041Z,61.70
2023-04-26T10:11:45.062Z,61.51
2023-04-26T10:12:45.088Z,62.65
2023-04-26T10:13:45.115Z,62.75
2023-04-26T10:14:45.146Z,62.37
2023-04-26T10:15:45.162Z,62.84
2023-04-26T10:16:45.214Z,62.91
2023-04-26T10:17:45.229Z,62.84
2023-04-26T10:18:45.235Z,64.18
2023-04-26T10:19:45.257Z,62.84
2023-04-26T10:20:45.278Z,62.08
2023-04-26T10:21:45.307Z,61.70
2023-04-26T10:22:45.339Z,61.89
2023-04-26T10:23:45.362Z,62.75
2023-04-26T10:24:45.377Z,62.84
2023-04-26T10:25:45.400Z,62.37
2023-04-26T10:26:45.424Z,61.04
2023-04-26T10:27:45.461Z,60.55
2023-04-26T10:28:45.482Z,60.75
2023-04-26T10:29:45.493Z,61.13
2023-04-26T10:30:45.522Z,60.75
2023-04-26T10:31:45.576Z,59.79
2023-04-26T10:32:45.601Z,58.75
2023-04-26T10:33:45.588Z,59.03
2023-04-26T10:34:45.613Z,59.51
2023-04-26T10:35:45.638Z,59.22
2023-04-26T10:36:45.664Z,59.60
2023-04-26T10:37:45.682Z,59.12
2023-04-26T10:38:45.711Z,57.72
2023-04-26T10:39:45.773Z,57.53
2023-04-26T10:40:45.876Z,56.87
2023-04-26T10:41:45.790Z,56.38
2023-04-26T10:42:45.804Z,56.58
2023-04-26T10:43:45.842Z,56.77
2023-04-26T10:44:45.902Z,57.43
2023-04-26T10:45:45.902Z,57.75
2023-04-26T10:46:45.904Z,59.47
2023-04-26T10:47:45.986Z,59.85
2023-04-26T10:48:45.951Z,58.73
2023-04-26T10:49:45.977Z,57.31
2023-04-26T10:50:46.003Z,55.49
2023-04-26T10:51:46.033Z,54.15
2023-04-26T10:52:46.045Z,54.63
2023-04-26T10:53:46.088Z,55.96
2023-04-26T10:54:46.099Z,56.32
2023-04-26T10:55:46.128Z,55.84
2023-04-26T10:56:46.149Z,56.13
2023-04-26T10:57:46.176Z,57.56
2023-04-26T10:58:46.199Z,58.33
2023-04-26T10:59:54.295Z,58.29
2023-04-26T11:00:46.257Z,58.58
2023-04-26T11:01:46.404Z,59.73
2023-04-26T11:02:46.353Z,59.25
2023-04-26T11:03:46.577Z,59.06
2023-04-26T11:04:46.388Z,58.11
2023-04-26T11:05:46.369Z,57.72
2023-04-26T11:06:46.392Z,57.89
2023-04-26T11:07:46.419Z,57.89
2023-04-26T11:08:46.446Z,58.36
2023-04-26T11:09:46.481Z,58.46
2023-04-26T11:10:46.486Z,59.41
2023-04-26T11:11:46.509Z,59.86
2023-04-26T11:12:46.540Z,60.62
2023-04-26T11:13:46.558Z,60.81
2023-04-26T11:14:46.592Z,61.57
2023-04-26T11:15:46.623Z,61.57
2023-04-26T11:16:46.632Z,61.57
2023-04-26T11:17:46.729Z,61.38
2023-04-26T11:18:46.698Z,60.81
2023-04-26T11:19:46.702Z,60.52
2023-04-26T11:20:46.722Z,60.88
2023-04-26T11:21:46.753Z,61.25
2023-04-26T11:22:46.759Z,62.68
2023-04-26T11:23:46.795Z,62.40
2023-04-26T11:24:46.812Z,62.40
2023-04-26T11:25:46.836Z,62.72
2023-04-26T11:26:46.858Z,62.43
2023-04-26T11:27:46.892Z,62.52
2023-04-26T11:28:46.932Z,62.34
2023-04-26T11:29:46.937Z,61.86
2023-04-26T11:30:46.945Z,61.76
2023-04-26T11:31:47.015Z,62.72
2023-04-26T11:32:47.030Z,62.62
2023-04-26T11:33:49.951Z,63.10
2023-04-26T11:34:47.042Z,62.81
2023-04-26T11:35:47.067Z,63.60
2023-04-26T11:36:47.085Z,63.51
2023-04-26T11:37:47.110Z,62.94
2023-04-26T11:38:47.157Z,62.08
2023-04-26T11:39:47.158Z,61.80
2023-04-26T11:40:47.180Z,60.68
2023-04-26T11:41:47.202Z,60.78
2023-04-26T11:42:47.226Z,60.97
2023-04-26T11:43:47.274Z,60.39
2023-04-26T11:44:47.940Z,59.63
2023-04-26T11:45:47.295Z,59.53
2023-04-26T11:46:47.368Z,59.73
2023-04-26T11:47:47.418Z,59.82
2023-04-26T11:48:47.369Z,59.53
2023-04-26T11:49:47.404Z,60.11
2023-04-26T11:50:47.416Z,59.53
2023-04-26T11:51:47.440Z,59.53
2023-04-26T11:52:47.472Z,59.06
2023-04-26T11:53:47.489Z,58.87
2023-04-26T11:54:47.523Z,58.68
2023-04-26T11:55:47.533Z,58.58
2023-04-26T11:56:47.554Z,58.97
2023-04-26T11:57:47.590Z,59.51
2023-04-26T11:58:47.606Z,59.03
2023-04-26T11:59:47.628Z,59.79
2023-04-26T12:00:47.816Z,59.51
2023-04-26T12:01:47.710Z,60.36
2023-04-26T12:02:47.844Z,60.75
2023-04-26T12:03:47.900Z,60.43
2023-04-26T12:04:48.067Z,61.48
2023-04-26T12:05:47.778Z,61.29
2023-04-26T12:06:47.798Z,61.76
2023-04-26T12:07:47.829Z,62.43
2023-04-26T12:08:47.854Z,63.00
2023-04-26T12:09:47.864Z,63.67
2023-04-26T12:10:47.887Z,64.15
2023-04-26T12:11:47.908Z,63.96
2023-04-26T12:12:47.936Z,64.72
2023-04-26T12:13:47.958Z,64.50
2023-04-26T12:14:47.974Z,64.78
2023-04-26T12:15:48.020Z,65.07
2023-04-26T12:16:48.094Z,65.07
2023-04-26T12:17:48.082Z,65.64
2023-04-26T12:18:48.070Z,66.40
2023-04-26T12:19:48.110Z,66.11
2023-04-26T12:20:48.112Z,66.11
2023-04-26T12:21:48.148Z,65.36
2023-04-26T12:22:48.154Z,65.16
2023-04-26T12:23:48.205Z,65.45
2023-04-26T12:24:48.219Z,65.26
2023-04-26T12:25:48.228Z,65.45
2023-04-26T12:26:48.250Z,65.16
2023-04-26T12:27:48.278Z,65.26
2023-04-26T12:28:48.302Z,65.45
2023-04-26T12:29:48.324Z,65.20
2023-04-26T12:30:48.339Z,64.81
2023-04-26T12:31:48.411Z,64.91
2023-04-26T12:32:48.667Z,65.07
2023-04-26T12:33:48.410Z,65.29
2023-04-26T12:34:48.431Z,65.48
2023-04-26T12:35:48.454Z,65.67
2023-04-26T12:36:48.512Z,65.96
2023-04-26T12:37:48.512Z,65.29
2023-04-26T12:38:48.527Z,65.20
2023-04-26T12:39:48.549Z,65.77
2023-04-26T12:40:48.566Z,65.58
2023-04-26T12:41:48.589Z,65.00
2023-04-26T12:42:48.618Z,64.81
2023-04-26T12:43:48.637Z,64.72
2023-04-26T12:44:48.653Z,65.20
2023-04-26T12:45:48.711Z,65.29
2023-04-26T12:46:48.809Z,65.20
2023-04-26T12:47:48.775Z,65.29
2023-04-26T12:48:48.751Z,64.43
2023-04-26T12:49:48.820Z,64.24
2023-04-26T12:50:51.079Z,64.72
2023-04-26T12:51:48.824Z,64.75
2023-04-26T12:52:48.838Z,64.18